createdAt,value
2018-12-21T00:00:26.114Z,79.40
2018-12-21T00:02:53.627Z,79.70
2018-12-21T00:05:21.041Z,79.60
2018-12-21T00:07:48.585Z,79.70
2018-12-21T00:10:16.063Z,79.60
2018-12-21T00:12:43.538Z,79.70
2018-12-21T00:15:11.001Z,79.40
2018-12-21T00:17:38.533Z,79.40
2018-12-21T00:20:07.149Z,79.40
2018-12-21T00:22:34.683Z,79.60
2018-12-21T00:25:02.150Z,79.70
2018-12-21T00:27:31.280Z,79.60
2018-12-21T00:29:58.796Z,79.60
2018-12-21T00:32:31.995Z,79.70
2018-12-21T00:35:05.296Z,79.50
2018-12-21T00:37:38.392Z,79.50
2018-12-21T00:40:12.432Z,79.40
2018-12-21T00:42:47.611Z,79.40
2018-12-21T00:45:17.263Z,79.30
2018-12-21T00:47:44.702Z,79.60
2018-12-21T00:50:12.195Z,79.80
2018-12-21T00:52:39.892Z,79.80
2018-12-21T00:55:07.595Z,79.70
2018-12-21T00:57:35.118Z,79.60
2018-12-21T01:00:03.306Z,79.60
2018-12-21T01:02:30.920Z,79.50
2018-12-21T01:04:58.337Z,79.40
2018-12-21T01:07:25.921Z,79.20
2018-12-21T01:09:53.505Z,79.10
2018-12-21T01:12:21.090Z,79.00
2018-12-21T01:14:48.604Z,79.00
2018-12-21T01:17:16.036Z,78.90
2018-12-21T01:19:43.545Z,79.00
2018-12-21T01:22:11.031Z,78.90
2018-12-21T01:24:38.507Z,78.90
2018-12-21T01:27:05.992Z,78.70
2018-12-21T01:29:33.425Z,78.90
2018-12-21T01:32:00.854Z,79.00
2018-12-21T01:34:28.331Z,78.80
2018-12-21T01:36:55.888Z,78.70
2018-12-21T01:39:23.642Z,78.70
2018-12-21T01:41:51.154Z,78.70
2018-12-21T01:44:18.589Z,78.60
2018-12-21T01:46:46.028Z,78.60
2018-12-21T01:49:13.530Z,78.60
2018-12-21T01:51:47.081Z,78.70
2018-12-21T01:54:10.348Z,78.70
2018-12-21T01:56:37.782Z,78.70
2018-12-21T01:59:05.218Z,78.70
2018-12-21T02:01:32.655Z,78.30
2018-12-21T02:04:00.174Z,78.10
2018-12-21T02:06:28.020Z,78.00
2018-12-21T02:08:55.456Z,77.90
2018-12-21T02:11:22.901Z,77.80
2018-12-21T02:13:50.376Z,77.60
2018-12-21T02:16:17.851Z,77.70
2018-12-21T02:18:45.301Z,77.50
2018-12-21T02:21:12.752Z,77.50
2018-12-21T02:23:40.236Z,77.10
2018-12-21T02:26:07.784Z,77.10
2018-12-21T02:28:35.240Z,77.10
2018-12-21T02:31:02.824Z,76.90
2018-12-21T02:33:30.931Z,76.70
2018-12-21T02:35:58.452Z,76.80
2018-12-21T02:38:25.873Z,76.80
2018-12-21T02:40:53.363Z,77.10
2018-12-21T02:43:20.821Z,77.10
2018-12-21T02:45:48.258Z,77.20
2018-12-21T02:48:15.758Z,77.20
2018-12-21T02:50:43.255Z,77.10
2018-12-21T02:53:10.680Z,77.10
2018-12-21T02:55:38.143Z,77.10
2018-12-21T02:58:05.718Z,77.10
2018-12-21T03:00:33.182Z,77.10
2018-12-21T03:03:00.633Z,77.30
2018-12-21T03:05:28.122Z,77.30
2018-12-21T03:07:55.552Z,77.10
2018-12-21T03:10:22.966Z,77.10
2018-12-21T03:12:50.505Z,77.10
2018-12-21T03:15:18.005Z,77.30
2018-12-21T03:17:45.509Z,77.30
2018-12-21T03:20:13.077Z,77.10
2018-12-21T03:22:40.542Z,77.10
2018-12-21T03:25:07.968Z,77.10
2018-12-21T03:27:35.391Z,77.30
2018-12-21T03:30:03.084Z,77.30
2018-12-21T03:32:30.599Z,77.10
2018-12-21T03:34:58.054Z,77.40
2018-12-21T03:37:25.474Z,77.40
2018-12-21T03:39:52.984Z,77.40
2018-12-21T03:42:20.489Z,77.10
2018-12-21T03:44:47.904Z,77.30
2018-12-21T03:47:15.381Z,77.40
2018-12-21T03:49:42.887Z,77.40
2018-12-21T03:52:10.327Z,77.40
2018-12-21T03:54:37.830Z,77.30
2018-12-21T03:57:05.303Z,76.80
2018-12-21T03:59:32.876Z,77.10
2018-12-21T04:02:00.330Z,77.10
2018-12-21T04:04:27.805Z,77.00
2018-12-21T04:06:55.233Z,76.80
2018-12-21T04:09:22.721Z,76.70
2018-12-21T04:11:50.203Z,76.60
2018-12-21T04:14:17.663Z,76.40
2018-12-21T04:16:45.096Z,76.30
2018-12-21T04:19:12.572Z,76.30
2018-12-21T04:21:40.012Z,76.30
2018-12-21T04:24:08.567Z,76.10
2018-12-21T04:26:35.987Z,76.00
2018-12-21T04:29:03.534Z,75.80
2018-12-21T04:31:30.974Z,75.70
2018-12-21T04:33:58.401Z,75.80
2018-12-21T04:36:25.821Z,75.80
2018-12-21T04:38:53.314Z,75.90
2018-12-21T04:41:20.827Z,75.90
2018-12-21T04:43:48.326Z,75.80
2018-12-21T04:46:15.780Z,75.80
2018-12-21T04:48:43.232Z,75.90
2018-12-21T04:51:10.708Z,75.80
2018-12-21T04:53:38.186Z,75.70
2018-12-21T04:56:05.640Z,75.70
2018-12-21T04:58:33.089Z,75.60
2018-12-21T05:01:00.559Z,75.70
2018-12-21T05:03:28.082Z,75.80
2018-12-21T05:05:55.496Z,75.90
2018-12-21T05:08:22.926Z,76.30
2018-12-21T05:10:50.366Z,76.60
2018-12-21T05:13:17.872Z,77.00
2018-12-21T05:15:45.348Z,77.30
2018-12-21T05:18:12.766Z,77.60
2018-12-21T05:20:40.185Z,78.00
2018-12-21T05:23:07.702Z,78.00
2018-12-21T05:25:35.199Z,78.70
2018-12-21T05:28:02.745Z,78.90
2018-12-21T05:30:30.166Z,79.20
2018-12-21T05:32:57.697Z,79.50
2018-12-21T05:35:25.235Z,80.00
2018-12-21T05:37:53.292Z,80.10
2018-12-21T05:40:20.756Z,80.50
2018-12-21T05:42:48.218Z,80.80
2018-12-21T05:45:15.832Z,81.10
2018-12-21T05:47:43.250Z,81.20
2018-12-21T05:50:10.808Z,81.40
2018-12-21T05:52:38.260Z,81.50
2018-12-21T05:55:05.729Z,81.50
2018-12-21T05:57:33.192Z,81.70
2018-12-21T06:00:00.774Z,81.90
2018-12-21T06:02:28.194Z,82.10
2018-12-21T06:04:55.786Z,82.20
2018-12-21T06:07:23.253Z,82.30
2018-12-21T06:09:50.715Z,82.40
2018-12-21T06:12:18.274Z,82.60
2018-12-21T06:14:46.358Z,82.70
2018-12-21T06:17:13.924Z,82.70
2018-12-21T06:19:41.398Z,82.70
2018-12-21T06:22:08.841Z,82.80
2018-12-21T06:24:36.261Z,83.00
2018-12-21T06:27:03.695Z,82.90
2018-12-21T06:29:31.132Z,83.10
2018-12-21T06:31:58.598Z,83.20
2018-12-21T06:34:26.025Z,83.20
2018-12-21T06:36:53.514Z,83.30
2018-12-21T06:39:20.988Z,83.50
2018-12-21T06:41:48.425Z,83.50
2018-12-21T06:44:15.911Z,83.50
2018-12-21T06:46:43.425Z,83.50
2018-12-21T06:49:10.874Z,83.50
2018-12-21T06:51:38.393Z,83.60
2018-12-21T06:54:05.844Z,83.60
2018-12-21T06:56:33.285Z,83.80
2018-12-21T06:59:00.709Z,83.80
2018-12-21T07:01:28.147Z,83.90
2018-12-21T07:03:55.594Z,84.00
2018-12-21T07:06:23.020Z,84.10
2018-12-21T07:08:50.451Z,84.20
2018-12-21T07:11:18.916Z,84.30
2018-12-21T07:13:46.360Z,84.40
2018-12-21T07:16:13.811Z,84.50
2018-12-21T07:18:41.279Z,84.60
2018-12-21T07:21:08.769Z,84.60
2018-12-21T07:23:36.732Z,84.60
2018-12-21T07:26:04.184Z,84.80
2018-12-21T07:28:31.743Z,85.00
2018-12-21T07:30:59.217Z,84.90
2018-12-21T07:33:26.625Z,85.30
2018-12-21T07:35:54.044Z,85.40
2018-12-21T07:38:22.434Z,85.40
2018-12-21T07:40:49.851Z,85.50
2018-12-21T07:43:17.650Z,85.60
2018-12-21T07:45:45.213Z,85.50
2018-12-21T07:48:12.770Z,85.50
2018-12-21T07:50:40.195Z,85.50
2018-12-21T07:53:07.610Z,85.80
2018-12-21T07:55:35.075Z,85.90
2018-12-21T07:58:02.537Z,86.00
2018-12-21T08:00:29.967Z,85.90
2018-12-21T08:02:57.409Z,85.60
2018-12-21T08:05:24.919Z,85.20
2018-12-21T08:07:52.373Z,85.00
2018-12-21T08:10:19.818Z,84.90
2018-12-21T08:12:47.241Z,85.00
2018-12-21T08:15:15.136Z,85.50
2018-12-21T08:17:42.573Z,85.80
2018-12-21T08:20:10.188Z,86.30
2018-12-21T08:22:38.008Z,86.80
2018-12-21T08:25:05.484Z,87.20
2018-12-21T08:27:32.982Z,87.50
2018-12-21T08:30:00.443Z,87.50
2018-12-21T08:32:27.917Z,87.60
2018-12-21T08:34:55.368Z,87.60
2018-12-21T08:37:22.854Z,87.60
2018-12-21T08:39:50.301Z,87.60
2018-12-21T08:42:17.718Z,87.30
2018-12-21T08:44:45.220Z,87.50
2018-12-21T08:47:12.701Z,87.20
2018-12-21T08:49:40.116Z,87.20
2018-12-21T08:52:08.095Z,87.10
2018-12-21T08:54:35.513Z,87.20
2018-12-21T08:57:02.967Z,86.90
2018-12-21T08:59:30.397Z,86.70
2018-12-21T09:01:57.864Z,86.40
2018-12-21T09:04:32.119Z,86.30
2018-12-21T09:06:54.727Z,86.30
2018-12-21T09:09:22.170Z,86.40
2018-12-21T09:11:49.656Z,86.80
2018-12-21T09:14:17.114Z,86.80
2018-12-21T09:16:44.527Z,86.60
2018-12-21T09:19:12.039Z,86.70
2018-12-21T09:21:39.461Z,86.60
2018-12-21T09:24:06.970Z,86.50
2018-12-21T09:26:35.478Z,86.50
2018-12-21T09:29:02.900Z,86.60
2018-12-21T09:31:30.328Z,86.50
2018-12-21T09:33:57.754Z,86.40
2018-12-21T09:36:25.184Z,86.30
2018-12-21T09:38:52.603Z,86.50
2018-12-21T09:41:20.123Z,86.30
2018-12-21T09:43:48.551Z,86.40
2018-12-21T09:46:16.072Z,86.50
2018-12-21T09:48:43.531Z,86.30
2018-12-21T09:51:10.989Z,86.20
2018-12-21T09:53:38.407Z,86.10
2018-12-21T09:56:05.861Z,85.90
2018-12-21T09:58:33.366Z,86.10
2018-12-21T10:01:00.834Z,86.20
2018-12-21T10:03:28.417Z,85.90
2018-12-21T10:05:55.835Z,85.80
2018-12-21T10:08:23.321Z,85.80
2018-12-21T10:10:50.774Z,85.70
2018-12-21T10:13:18.281Z,85.70
2018-12-21T10:15:45.693Z,85.60
2018-12-21T10:18:13.172Z,85.30
2018-12-21T10:20:40.587Z,85.10
2018-12-21T10:23:08.126Z,85.50
2018-12-21T10:25:35.533Z,84.30
2018-12-21T10:28:03.021Z,84.60
2018-12-21T10:30:30.482Z,84.50
2018-12-21T10:32:57.900Z,84.20
2018-12-21T10:35:25.332Z,84.30
2018-12-21T10:37:52.782Z,84.20
2018-12-21T10:40:20.220Z,83.60
2018-12-21T10:42:47.680Z,83.40
2018-12-21T10:45:15.149Z,83.40
2018-12-21T10:47:42.628Z,83.70
2018-12-21T10:50:10.084Z,83.70
2018-12-21T10:52:38.956Z,83.30
2018-12-21T10:55:07.333Z,83.60
2018-12-21T10:57:34.813Z,83.90
2018-12-21T11:00:02.229Z,83.50
2018-12-21T11:02:29.733Z,83.50
2018-12-21T11:04:57.196Z,82.80
2018-12-21T11:07:24.639Z,82.80
2018-12-21T11:09:52.126Z,82.90
2018-12-21T11:12:19.590Z,82.70
2018-12-21T11:14:47.099Z,82.80
2018-12-21T11:17:14.805Z,82.80
2018-12-21T11:19:42.252Z,82.90
2018-12-21T11:22:09.733Z,82.90
2018-12-21T11:24:37.195Z,82.80
2018-12-21T11:27:04.970Z,82.90
2018-12-21T11:29:32.430Z,82.50
2018-12-21T11:32:00.006Z,82.70
2018-12-21T11:34:27.453Z,82.00
2018-12-21T11:36:55.033Z,82.40
2018-12-21T11:39:22.471Z,82.50
2018-12-21T11:41:49.974Z,82.70
2018-12-21T11:44:17.626Z,82.60
2018-12-21T11:46:45.058Z,82.30
2018-12-21T11:49:12.548Z,82.40
2018-12-21T11:51:40.000Z,82.80
2018-12-21T11:54:07.642Z,82.60
2018-12-21T11:56:35.238Z,82.00
2018-12-21T11:59:02.656Z,82.00
2018-12-21T12:01:30.088Z,82.20
2018-12-21T12:03:57.534Z,82.20
2018-12-21T12:06:25.094Z,82.10
2018-12-21T12:08:52.556Z,82.20
2018-12-21T12:11:19.997Z,82.50
2018-12-21T12:13:47.487Z,82.30
2018-12-21T12:16:15.039Z,82.20
2018-12-21T12:18:42.490Z,82.40
2018-12-21T12:21:09.961Z,82.30
2018-12-21T12:23:37.528Z,82.50
2018-12-21T12:26:05.092Z,82.70
2018-12-21T12:28:32.569Z,82.60
2018-12-21T12:31:00.017Z,82.90
2018-12-21T12:33:27.570Z,82.60
2018-12-21T12:35:55.565Z,82.90
2018-12-21T12:38:23.104Z,82.70
2018-12-21T12:40:50.572Z,82.90
2018-12-21T12:43:18.285Z,82.70
2018-12-21T12:45:45.788Z,82.70
2018-12-21T12:48:13.301Z,82.70
2018-12-21T12:50:40.728Z,82.50
2018-12-21T12:53:08.204Z,82.70
2018-12-21T12:55:35.641Z,82.50
2018-12-21T12:58:03.111Z,82.90
2018-12-21T13:00:30.677Z,82.80
2018-12-21T13:02:58.156Z,82.60
2018-12-21T13:05:25.610Z,82.70
2018-12-21T13:07:53.072Z,82.70
2018-12-21T13:10:20.527Z,82.70
2018-12-21T13:12:47.951Z,82.50
2018-12-21T13:15:15.452Z,82.60
2018-12-21T13:17:43.260Z,82.80
2018-12-21T13:20:10.795Z,82.60
2018-12-21T13:22:38.258Z,82.50
2018-12-21T13:25:11.385Z,82.70
2018-12-21T13:27:35.301Z,82.90
2018-12-21T13:30:03.628Z,82.90
2018-12-21T13:32:31.062Z,83.00
2018-12-21T13:34:58.513Z,83.20
2018-12-21T13:37:26.053Z,83.10
2018-12-21T13:39:53.513Z,83.20
2018-12-21T13:42:20.949Z,83.00
2018-12-21T13:44:48.999Z,83.20
2018-12-21T13:47:16.427Z,83.30
2018-12-21T13:49:43.873Z,83.30
2018-12-21T13:52:11.481Z,83.30
2018-12-21T13:54:38.973Z,83.40
2018-12-21T13:57:06.409Z,83.70
2018-12-21T13:59:33.857Z,83.70
2018-12-21T14:02:01.283Z,83.70
2018-12-21T14:04:28.739Z,83.70
2018-12-21T14:06:56.149Z,83.80
2018-12-21T14:09:23.626Z,84.00
2018-12-21T14:11:51.084Z,83.60
2018-12-21T14:14:18.522Z,83.60
2018-12-21T14:16:45.997Z,83.30
2018-12-21T14:19:13.452Z,83.20
2018-12-21T14:21:42.129Z,83.50
2018-12-21T14:24:09.599Z,84.00
2018-12-21T14:26:37.120Z,84.10
2018-12-21T14:29:04.640Z,84.10
2018-12-21T14:31:32.069Z,84.50
2018-12-21T14:33:59.494Z,84.80
2018-12-21T14:36:26.935Z,84.40
2018-12-21T14:38:54.348Z,84.40
2018-12-21T14:41:21.863Z,84.50
2018-12-21T14:43:49.322Z,84.00
2018-12-21T14:46:16.778Z,83.90
2018-12-21T14:48:44.208Z,84.00
2018-12-21T14:51:12.624Z,83.60
2018-12-21T14:53:40.069Z,83.60
2018-12-21T14:56:08.054Z,83.50
2018-12-21T14:58:35.557Z,83.30
2018-12-21T15:01:03.002Z,83.20
2018-12-21T15:03:30.447Z,82.80
2018-12-21T15:05:57.886Z,82.70
2018-12-21T15:08:25.316Z,82.80
2018-12-21T15:10:52.735Z,82.60
2018-12-21T15:13:20.180Z,82.40
2018-12-21T15:15:47.616Z,82.30
2018-12-21T15:18:15.052Z,82.00
2018-12-21T15:20:42.491Z,82.10
2018-12-21T15:23:09.923Z,81.80
2018-12-21T15:25:45.902Z,81.70
2018-12-21T15:28:06.900Z,81.50
2018-12-21T15:30:34.358Z,81.40
2018-12-21T15:33:01.783Z,81.40
2018-12-21T15:35:29.518Z,81.30
2018-12-21T15:37:57.051Z,81.30
2018-12-21T15:40:24.526Z,81.20
2018-12-21T15:42:53.948Z,81.30
2018-12-21T15:45:21.392Z,81.20
2018-12-21T15:47:48.829Z,81.10
2018-12-21T15:50:17.100Z,81.10
2018-12-21T15:52:44.611Z,81.00
2018-12-21T15:55:12.144Z,81.00
2018-12-21T15:57:39.705Z,80.90
2018-12-21T16:00:10.261Z,81.00
2018-12-21T16:02:37.699Z,81.00
2018-12-21T16:05:06.603Z,81.10
2018-12-21T16:07:34.352Z,81.00
2018-12-21T16:10:01.841Z,81.20
2018-12-21T16:12:29.302Z,81.30
2018-12-21T16:14:56.878Z,81.80
2018-12-21T16:17:24.310Z,81.80
2018-12-21T16:19:51.755Z,81.40
2018-12-21T16:22:19.182Z,81.00
2018-12-21T16:24:46.720Z,80.80
2018-12-21T16:27:15.568Z,80.60
2018-12-21T16:29:43.019Z,80.30
2018-12-21T16:32:10.581Z,80.20
2018-12-21T16:34:38.020Z,79.90
2018-12-21T16:37:05.474Z,79.70
2018-12-21T16:39:32.888Z,79.60
2018-12-21T16:42:00.414Z,79.30
2018-12-21T16:44:27.946Z,78.90
2018-12-21T16:46:55.434Z,79.00
2018-12-21T16:49:22.879Z,78.60
2018-12-21T16:51:50.324Z,78.40
2018-12-21T16:54:17.772Z,78.50
2018-12-21T16:56:45.205Z,78.30
2018-12-21T16:59:12.638Z,77.90
2018-12-21T17:01:40.098Z,77.90
2018-12-21T17:04:07.571Z,77.70
2018-12-21T17:06:37.106Z,77.70
2018-12-21T17:09:06.635Z,77.90
2018-12-21T17:11:34.067Z,77.50
2018-12-21T17:14:02.059Z,77.50
2018-12-21T17:16:29.807Z,77.40
2018-12-21T17:18:57.880Z,77.50
2018-12-21T17:21:25.424Z,77.60
2018-12-21T17:23:52.946Z,77.40
2018-12-21T17:26:21.304Z,77.50
2018-12-21T17:28:49.179Z,77.60
2018-12-21T17:31:16.688Z,77.60
2018-12-21T17:33:44.130Z,77.90
2018-12-21T17:36:11.620Z,77.60
2018-12-21T17:38:39.089Z,77.60
2018-12-21T17:41:06.542Z,77.50
2018-12-21T17:43:34.023Z,77.50
2018-12-21T17:46:01.594Z,77.40
2018-12-21T17:48:29.054Z,77.60
2018-12-21T17:50:57.475Z,77.50
2018-12-21T17:53:24.924Z,77.50
2018-12-21T17:55:52.363Z,77.40
2018-12-21T17:58:19.953Z,77.40
2018-12-21T18:00:47.488Z,77.30
2018-12-21T18:03:18.311Z,77.30
2018-12-21T18:05:45.778Z,77.20
2018-12-21T18:08:13.350Z,77.30
2018-12-21T18:10:40.885Z,77.00
2018-12-21T18:13:08.691Z,76.80
2018-12-21T18:15:36.118Z,76.70
2018-12-21T18:18:03.719Z,76.50
2018-12-21T18:20:31.263Z,76.60
2018-12-21T18:22:59.662Z,76.40
2018-12-21T18:25:27.142Z,76.50
2018-12-21T18:27:54.597Z,76.40
2018-12-21T18:30:22.141Z,76.30
2018-12-21T18:32:49.673Z,76.10
2018-12-21T18:35:17.120Z,76.10
2018-12-21T18:37:46.952Z,75.80
2018-12-21T18:40:14.455Z,75.90
2018-12-21T18:42:41.894Z,75.70
2018-12-21T18:45:09.442Z,75.70
2018-12-21T18:47:36.955Z,75.70
2018-12-21T18:50:07.454Z,75.50
2018-12-21T18:52:36.208Z,75.50
2018-12-21T18:55:07.067Z,75.30
2018-12-21T18:57:34.519Z,75.30
2018-12-21T19:00:02.084Z,75.50
2018-12-21T19:02:29.541Z,75.20
2018-12-21T19:04:56.987Z,75.10
2018-12-21T19:07:24.473Z,75.10
2018-12-21T19:09:52.022Z,75.00
2018-12-21T19:12:19.553Z,75.10
2018-12-21T19:14:47.143Z,75.00
2018-12-21T19:17:14.628Z,74.90
2018-12-21T19:19:42.138Z,74.70
2018-12-21T19:22:10.647Z,74.70
2018-12-21T19:24:39.111Z,74.40
2018-12-21T19:27:06.697Z,74.50
2018-12-21T19:29:34.153Z,74.40
2018-12-21T19:32:01.620Z,74.50
2018-12-21T19:34:29.101Z,74.50
2018-12-21T19:36:56.730Z,74.40
2018-12-21T19:39:24.317Z,74.10
2018-12-21T19:41:51.806Z,74.00
2018-12-21T19:44:19.304Z,74.20
2018-12-21T19:46:46.819Z,74.10
2018-12-21T19:49:14.332Z,74.30
2018-12-21T19:51:42.084Z,74.40
2018-12-21T19:54:09.878Z,74.50
2018-12-21T19:56:40.363Z,74.70
2018-12-21T19:59:07.881Z,74.00
2018-12-21T20:01:36.356Z,74.20
2018-12-21T20:04:03.945Z,74.40
2018-12-21T20:06:31.405Z,74.40
2018-12-21T20:08:58.889Z,74.30
2018-12-21T20:11:26.358Z,74.10
2018-12-21T20:13:54.378Z,73.70
2018-12-21T20:16:21.881Z,73.70
2018-12-21T20:18:49.368Z,73.70
2018-12-21T20:21:16.861Z,73.30
2018-12-21T20:23:44.348Z,73.10
2018-12-21T20:26:11.804Z,73.00
2018-12-21T20:28:39.367Z,72.70
2018-12-21T20:31:06.862Z,72.70
2018-12-21T20:33:34.316Z,72.50
2018-12-21T20:36:01.989Z,72.60
2018-12-21T20:38:29.702Z,72.50
2018-12-21T20:40:59.336Z,72.70
2018-12-21T20:43:27.897Z,72.60
2018-12-21T20:45:55.425Z,72.60
2018-12-21T20:48:23.996Z,72.60
2018-12-21T20:50:51.494Z,72.40
2018-12-21T20:53:18.982Z,72.70
2018-12-21T20:55:47.414Z,72.60
2018-12-21T20:58:18.891Z,72.80
2018-12-21T21:00:46.477Z,72.20
2018-12-21T21:03:13.932Z,72.40
2018-12-21T21:05:41.493Z,72.80
2018-12-21T21:08:08.982Z,72.60
2018-12-21T21:10:36.494Z,72.90
2018-12-21T21:13:03.944Z,72.60
2018-12-21T21:15:31.411Z,72.80
2018-12-21T21:17:58.945Z,72.80
2018-12-21T21:20:26.397Z,72.80
2018-12-21T21:22:53.868Z,72.70
2018-12-21T21:25:21.332Z,72.70
2018-12-21T21:27:48.786Z,72.70
2018-12-21T21:30:17.702Z,72.70
2018-12-21T21:32:45.204Z,72.70
2018-12-21T21:35:12.708Z,72.60
2018-12-21T21:37:41.095Z,72.40
2018-12-21T21:40:14.918Z,72.70
2018-12-21T21:42:44.029Z,72.80
2018-12-21T21:45:11.486Z,72.70
2018-12-21T21:47:38.944Z,72.60
2018-12-21T21:50:09.258Z,72.80
2018-12-21T21:52:36.940Z,72.60
2018-12-21T21:55:04.664Z,72.60
2018-12-21T21:57:39.253Z,72.60
2018-12-21T22:00:01.678Z,72.50
2018-12-21T22:02:29.159Z,72.80
2018-12-21T22:04:56.637Z,72.50
2018-12-21T22:07:24.138Z,72.50
2018-12-21T22:09:51.559Z,72.60
2018-12-21T22:12:19.019Z,72.70
2018-12-21T22:14:47.345Z,72.30
2018-12-21T22:17:14.830Z,72.40
2018-12-21T22:19:43.324Z,72.30
2018-12-21T22:22:10.791Z,72.50
2018-12-21T22:24:38.295Z,72.70
2018-12-21T22:27:05.785Z,72.90
2018-12-21T22:29:33.276Z,73.00
2018-12-21T22:32:00.727Z,72.90
2018-12-21T22:34:28.190Z,73.00
2018-12-21T22:36:55.670Z,73.10
2018-12-21T22:39:23.502Z,73.20
2018-12-21T22:41:50.951Z,73.40
2018-12-21T22:44:18.527Z,73.30
2018-12-21T22:46:46.019Z,73.70
2018-12-21T22:49:13.550Z,74.00
2018-12-21T22:51:41.037Z,74.00
2018-12-21T22:54:08.551Z,73.90
2018-12-21T22:56:36.022Z,73.90
2018-12-21T22:59:03.495Z,73.10
2018-12-21T23:01:31.022Z,73.00
2018-12-21T23:03:58.486Z,73.00
2018-12-21T23:06:26.498Z,72.70
2018-12-21T23:08:54.062Z,72.80
2018-12-21T23:11:21.548Z,72.60
2018-12-21T23:13:49.029Z,72.20
2018-12-21T23:16:16.515Z,71.90
2018-12-21T23:18:43.957Z,71.60
2018-12-21T23:21:11.483Z,71.10
2018-12-21T23:23:39.063Z,70.80
2018-12-21T23:26:06.596Z,70.60
2018-12-21T23:28:34.069Z,70.10
2018-12-21T23:31:01.547Z,69.70
2018-12-21T23:33:29.043Z,70.10
2018-12-21T23:35:56.559Z,70.10
2018-12-21T23:38:24.119Z,69.90
2018-12-21T23:40:51.575Z,70.20
2018-12-21T23:43:19.075Z,70.10
2018-12-21T23:45:46.622Z,70.10
2018-12-21T23:48:14.061Z,70.40
2018-12-21T23:50:41.497Z,70.70
2018-12-21T23:53:08.949Z,70.70
2018-12-21T23:55:36.475Z,70.90
2018-12-21T23:58:04.189Z,70.80
